createdAt,value
2024-02-22T00:00:39.035Z,1.77
2024-02-22T00:01:39.132Z,1.48
2024-02-22T00:02:39.105Z,1.57
2024-02-22T00:03:39.152Z,1.72
2024-02-22T00:04:39.404Z,1.61
2024-02-22T00:05:39.351Z,1.75
2024-02-22T00:06:39.284Z,1.75
2024-02-22T00:07:39.368Z,1.33
2024-02-22T00:08:39.349Z,1.85
2024-02-22T00:09:39.403Z,1.54
2024-02-22T00:10:39.481Z,1.42
2024-02-22T00:11:39.749Z,1.47
2024-02-22T00:12:39.542Z,1.34
2024-02-22T00:13:39.590Z,1.20
2024-02-22T00:14:39.625Z,1.73
2024-02-22T00:15:39.667Z,1.49
2024-02-22T00:16:39.740Z,1.44
2024-02-22T00:17:39.847Z,1.39
2024-02-22T00:18:39.827Z,1.62
2024-02-22T00:19:39.899Z,1.46
2024-02-22T00:20:39.903Z,1.54
2024-02-22T00:21:39.961Z,1.55
2024-02-22T00:22:40.091Z,1.40
2024-02-22T00:23:40.042Z,1.34
2024-02-22T00:24:40.089Z,1.70
2024-02-22T00:25:40.161Z,1.44
2024-02-22T00:26:40.189Z,1.19
2024-02-22T00:27:40.234Z,1.81
2024-02-22T00:28:40.297Z,1.60
2024-02-22T00:29:40.341Z,1.91
2024-02-22T00:30:40.387Z,1.63
2024-02-22T00:31:40.461Z,2.00
2024-02-22T00:32:40.473Z,1.57
2024-02-22T00:33:40.641Z,1.71
2024-02-22T00:34:41.494Z,1.54
2024-02-22T00:35:40.653Z,1.55
2024-02-22T00:36:40.678Z,1.82
2024-02-22T00:37:40.738Z,1.55
2024-02-22T00:38:40.792Z,1.51
2024-02-22T00:39:40.851Z,1.54
2024-02-22T00:40:40.921Z,1.61
2024-02-22T00:41:40.919Z,1.71
2024-02-22T00:42:40.969Z,1.46
2024-02-22T00:43:41.099Z,1.79
2024-02-22T00:44:41.080Z,1.64
2024-02-22T00:45:41.125Z,1.53
2024-02-22T00:46:41.180Z,1.61
2024-02-22T00:47:41.281Z,1.56
2024-02-22T00:48:41.373Z,1.75
2024-02-22T00:49:41.448Z,1.33
2024-02-22T00:50:41.467Z,1.72
2024-02-22T00:51:41.423Z,1.69
2024-02-22T00:52:41.504Z,1.52
2024-02-22T00:53:41.528Z,1.33
2024-02-22T00:54:41.580Z,1.54
2024-02-22T00:55:41.633Z,1.47
2024-02-22T00:56:41.676Z,1.46
2024-02-22T00:57:41.722Z,1.52
2024-02-22T00:58:41.826Z,1.48
2024-02-22T00:59:41.823Z,1.23
2024-02-22T01:00:42.851Z,1.43
2024-02-22T01:01:41.962Z,1.76
2024-02-22T01:02:41.973Z,1.67
2024-02-22T01:03:42.056Z,1.44
2024-02-22T01:04:42.112Z,1.79
2024-02-22T01:05:42.224Z,1.76
2024-02-22T01:06:42.190Z,1.23
2024-02-22T01:07:42.276Z,1.75
2024-02-22T01:08:42.283Z,1.77
2024-02-22T01:09:42.344Z,1.66
2024-02-22T01:10:42.483Z,1.86
2024-02-22T01:11:42.540Z,1.25
2024-02-22T01:12:42.489Z,1.53
2024-02-22T01:13:42.553Z,1.10
2024-02-22T01:14:42.567Z,1.58
2024-02-22T01:15:42.625Z,1.59
2024-02-22T01:16:42.741Z,1.36
2024-02-22T01:17:42.742Z,1.61
2024-02-22T01:18:42.798Z,1.26
2024-02-22T01:19:42.833Z,1.86
2024-02-22T01:20:42.894Z,1.39
2024-02-22T01:21:42.953Z,1.76
2024-02-22T01:22:43.018Z,1.47
2024-02-22T01:23:43.031Z,1.54
2024-02-22T01:24:43.084Z,1.53
2024-02-22T01:25:43.160Z,1.43
2024-02-22T01:26:43.195Z,1.68
2024-02-22T01:27:43.249Z,1.49
2024-02-22T01:28:43.317Z,1.75
2024-02-22T01:29:43.347Z,1.60
2024-02-22T01:30:43.405Z,1.47
2024-02-22T01:31:43.484Z,1.62
2024-02-22T01:32:43.533Z,1.35
2024-02-22T01:33:43.621Z,1.35
2024-02-22T01:34:43.665Z,1.82
2024-02-22T01:35:43.674Z,1.59
2024-02-22T01:36:43.742Z,1.53
2024-02-22T01:37:43.857Z,1.64
2024-02-22T01:38:43.826Z,1.49
2024-02-22T01:39:43.897Z,1.56
2024-02-22T01:40:43.945Z,1.52
2024-02-22T01:41:43.994Z,1.29
2024-02-22T01:42:44.057Z,1.16
2024-02-22T01:43:44.129Z,1.57
2024-02-22T01:44:44.141Z,1.74
2024-02-22T01:45:44.193Z,1.71
2024-02-22T01:46:44.304Z,1.47
2024-02-22T01:47:44.400Z,1.38
2024-02-22T01:48:44.456Z,1.28
2024-02-22T01:49:44.525Z,1.34
2024-02-22T01:50:44.481Z,1.81
2024-02-22T01:51:44.538Z,1.42
2024-02-22T01:52:44.609Z,1.47
2024-02-22T01:53:44.659Z,1.58
2024-02-22T01:54:44.730Z,1.54
2024-02-22T01:55:44.861Z,1.17
2024-02-22T01:56:44.823Z,1.62
2024-02-22T01:57:44.872Z,1.69
2024-02-22T01:58:44.950Z,1.74
2024-02-22T01:59:44.986Z,1.80
2024-02-22T02:00:45.091Z,1.44
2024-02-22T02:01:45.108Z,1.89
2024-02-22T02:02:45.160Z,1.36
2024-02-22T02:03:45.219Z,1.29
2024-02-22T02:04:45.293Z,1.42
2024-02-22T02:05:45.318Z,1.48
2024-02-22T02:06:45.440Z,1.16
2024-02-22T02:07:45.491Z,1.26
2024-02-22T02:08:45.469Z,1.76
2024-02-22T02:09:45.521Z,1.38
2024-02-22T02:10:45.667Z,1.64
2024-02-22T02:11:46.010Z,1.29
2024-02-22T02:12:45.692Z,1.35
2024-02-22T02:13:45.800Z,1.52
2024-02-22T02:14:45.805Z,1.63
2024-02-22T02:15:45.886Z,1.35
2024-02-22T02:16:45.928Z,1.70
2024-02-22T02:17:45.981Z,1.64
2024-02-22T02:18:46.047Z,1.46
2024-02-22T02:19:46.116Z,1.50
2024-02-22T02:20:46.126Z,1.34
2024-02-22T02:21:46.195Z,1.35
2024-02-22T02:22:46.258Z,1.44
2024-02-22T02:23:46.304Z,1.67
2024-02-22T02:24:46.350Z,1.62
2024-02-22T02:25:46.477Z,1.75
2024-02-22T02:26:46.512Z,1.56
2024-02-22T02:27:46.509Z,1.34
2024-02-22T02:28:46.597Z,1.41
2024-02-22T02:29:46.634Z,1.53
2024-02-22T02:30:46.694Z,1.38
2024-02-22T02:31:46.781Z,1.33
2024-02-22T02:32:46.878Z,1.59
2024-02-22T02:33:46.892Z,1.71
2024-02-22T02:34:46.950Z,1.92
2024-02-22T02:35:46.963Z,1.64
2024-02-22T02:36:47.042Z,1.41
2024-02-22T02:37:47.161Z,1.29
2024-02-22T02:38:47.124Z,1.50
2024-02-22T02:39:47.191Z,1.71
2024-02-22T02:40:47.250Z,1.31
2024-02-22T02:41:47.293Z,1.21
2024-02-22T02:42:47.334Z,1.75
2024-02-22T02:43:47.414Z,1.40
2024-02-22T02:44:47.437Z,1.56
2024-02-22T02:45:47.498Z,1.53
2024-02-22T02:46:47.623Z,1.42
2024-02-22T02:47:47.635Z,1.26
2024-02-22T02:48:47.682Z,1.18
2024-02-22T02:49:47.726Z,1.37
2024-02-22T02:50:47.773Z,1.23
2024-02-22T02:51:47.902Z,1.64
2024-02-22T02:52:47.902Z,1.68
2024-02-22T02:53:47.945Z,1.62
2024-02-22T02:54:48.001Z,1.41
2024-02-22T02:55:48.076Z,1.65
2024-02-22T02:56:48.131Z,1.51
2024-02-22T02:57:48.175Z,1.15
2024-02-22T02:58:48.225Z,1.31
2024-02-22T02:59:48.267Z,1.41
2024-02-22T03:00:48.382Z,1.58
2024-02-22T03:01:48.438Z,1.79
2024-02-22T03:02:48.441Z,1.58
2024-02-22T03:03:48.516Z,1.42
2024-02-22T03:04:48.593Z,1.41
2024-02-22T03:05:48.767Z,1.50
2024-02-22T03:06:48.686Z,1.36
2024-02-22T03:07:48.716Z,1.74
2024-02-22T03:08:48.756Z,1.39
2024-02-22T03:09:48.804Z,1.52
2024-02-22T03:10:48.999Z,1.59
2024-02-22T03:11:49.037Z,1.51
2024-02-22T03:12:48.960Z,1.39
2024-02-22T03:13:49.039Z,1.62
2024-02-22T03:14:49.073Z,1.39
2024-02-22T03:15:49.137Z,1.55
2024-02-22T03:16:49.212Z,1.53
2024-02-22T03:17:49.284Z,1.46
2024-02-22T03:18:49.358Z,1.60
2024-02-22T03:19:49.395Z,1.78
2024-02-22T03:20:49.423Z,1.29
2024-02-22T03:21:49.484Z,1.15
2024-02-22T03:22:49.548Z,1.33
2024-02-22T03:23:49.613Z,1.53
2024-02-22T03:24:49.660Z,1.56
2024-02-22T03:25:49.757Z,1.87
2024-02-22T03:26:49.789Z,1.46
2024-02-22T03:27:49.848Z,1.51
2024-02-22T03:28:49.928Z,1.60
2024-02-22T03:29:49.959Z,1.86
2024-02-22T03:30:50.024Z,1.60
2024-02-22T03:31:50.235Z,1.44
2024-02-22T03:32:50.160Z,1.67
2024-02-22T03:33:50.225Z,1.77
2024-02-22T03:34:50.258Z,1.51
2024-02-22T03:35:50.332Z,1.69
2024-02-22T03:36:50.380Z,1.42
2024-02-22T03:37:50.469Z,1.50
2024-02-22T03:38:50.514Z,1.16
2024-02-22T03:39:50.570Z,1.17
2024-02-22T03:40:50.716Z,1.30
2024-02-22T03:41:50.685Z,1.73
2024-02-22T03:42:50.748Z,1.55
2024-02-22T03:43:50.828Z,1.24
2024-02-22T03:44:50.854Z,1.37
2024-02-22T03:45:50.921Z,1.39
2024-02-22T03:46:51.061Z,1.60
2024-02-22T03:47:51.061Z,1.24
2024-02-22T03:48:51.123Z,1.40
2024-02-22T03:49:51.178Z,1.63
2024-02-22T03:50:51.221Z,1.41
2024-02-22T03:51:51.272Z,1.48
2024-02-22T03:52:51.455Z,1.35
2024-02-22T03:53:51.432Z,1.69
2024-02-22T03:54:51.476Z,1.61
2024-02-22T03:55:51.581Z,1.78
2024-02-22T03:56:51.582Z,1.47
2024-02-22T03:57:51.716Z,1.40
2024-02-22T03:58:51.725Z,1.39
2024-02-22T03:59:51.759Z,1.13
2024-02-22T04:00:51.870Z,1.41
2024-02-22T04:01:51.930Z,1.89
2024-02-22T04:02:51.932Z,1.41
2024-02-22T04:03:51.970Z,1.37
2024-02-22T04:04:52.204Z,1.84
2024-02-22T04:05:52.112Z,1.24
2024-02-22T04:06:52.121Z,1.54
2024-02-22T04:07:52.129Z,1.49
2024-02-22T04:08:52.147Z,1.16
2024-02-22T04:09:52.210Z,1.38
2024-02-22T04:10:52.296Z,1.53
2024-02-22T04:11:52.335Z,1.18
2024-02-22T04:12:52.283Z,1.55
2024-02-22T04:13:59.474Z,1.67
2024-02-22T04:14:59.437Z,1.33
2024-02-22T04:15:59.461Z,1.64
2024-02-22T04:16:59.494Z,1.18
2024-02-22T04:17:59.500Z,1.23
2024-02-22T04:18:59.495Z,1.42
2024-02-22T04:19:59.488Z,1.40
2024-02-22T04:20:59.446Z,1.52
2024-02-22T04:21:59.461Z,1.52
2024-02-22T04:22:59.471Z,1.42
2024-02-22T04:23:59.506Z,1.49
2024-02-22T04:24:59.456Z,1.74
2024-02-22T04:25:59.474Z,1.43
2024-02-22T04:26:59.471Z,1.32
2024-02-22T04:27:59.467Z,1.49
2024-02-22T04:28:59.539Z,1.36
2024-02-22T04:29:59.467Z,1.33
2024-02-22T04:31:06.636Z,1.56
2024-02-22T04:32:06.677Z,1.33
2024-02-22T04:33:06.653Z,1.29
2024-02-22T04:34:06.640Z,1.39
2024-02-22T04:35:06.753Z,1.07
2024-02-22T04:36:06.647Z,1.13
2024-02-22T04:37:06.632Z,1.52
2024-02-22T04:38:06.727Z,1.23
2024-02-22T04:39:06.638Z,1.50
2024-02-22T04:40:06.636Z,1.62
2024-02-22T04:41:06.704Z,1.17
2024-02-22T04:42:06.635Z,1.44
2024-02-22T04:43:06.635Z,1.16
2024-02-22T04:44:06.850Z,1.32
2024-02-22T04:45:06.635Z,1.27
2024-02-22T04:46:06.647Z,1.19
2024-02-22T04:47:06.695Z,1.16
2024-02-22T04:48:06.751Z,1.38
2024-02-22T04:49:06.902Z,1.57
2024-02-22T04:50:06.741Z,1.43
2024-02-22T04:51:06.655Z,1.37
2024-02-22T04:52:06.646Z,1.41
2024-02-22T04:53:06.684Z,1.28
2024-02-22T04:54:06.657Z,1.14
2024-02-22T04:55:06.659Z,1.22
2024-02-22T04:56:06.744Z,1.49
2024-02-22T04:57:06.670Z,1.33
2024-02-22T04:58:06.664Z,1.14
2024-02-22T04:59:06.688Z,1.35
2024-02-22T05:00:06.794Z,1.28
2024-02-22T05:01:06.702Z,1.62
2024-02-22T05:02:06.804Z,1.18
2024-02-22T05:03:06.674Z,1.28
2024-02-22T05:04:06.784Z,1.63
2024-02-22T05:05:06.740Z,1.24
2024-02-22T05:06:06.747Z,1.82
2024-02-22T05:07:06.685Z,1.30
2024-02-22T05:08:06.770Z,1.42
2024-02-22T05:09:06.682Z,1.31
2024-02-22T05:10:06.679Z,1.11
2024-02-22T05:11:06.739Z,1.05
2024-02-22T05:12:06.708Z,1.34
2024-02-22T05:13:06.698Z,1.17
2024-02-22T05:14:06.714Z,1.28
2024-02-22T05:15:06.705Z,1.19
2024-02-22T05:16:06.690Z,1.28
2024-02-22T05:17:06.794Z,1.20
2024-02-22T05:18:06.860Z,1.37
2024-02-22T05:19:06.738Z,1.26
2024-02-22T05:20:06.765Z,1.18
2024-02-22T05:21:06.839Z,1.50
2024-02-22T05:22:07.675Z,1.14
2024-02-22T05:23:06.943Z,1.23
2024-02-22T05:24:06.991Z,1.39
2024-02-22T05:25:07.063Z,1.70
2024-02-22T05:26:07.172Z,1.34
2024-02-22T05:27:07.192Z,1.18
2024-02-22T05:28:07.263Z,1.32
2024-02-22T05:29:07.344Z,1.40
2024-02-22T05:30:07.371Z,1.41
2024-02-22T05:31:07.455Z,1.24
2024-02-22T05:32:07.542Z,1.86
2024-02-22T05:33:07.648Z,1.42
2024-02-22T05:34:07.679Z,1.33
2024-02-22T05:35:07.741Z,1.38
2024-02-22T05:36:07.774Z,1.17
2024-02-22T05:37:07.843Z,1.35
2024-02-22T05:38:07.969Z,1.43
2024-02-22T05:39:07.976Z,1.54
2024-02-22T05:40:08.060Z,1.33
2024-02-22T05:41:08.148Z,1.20
2024-02-22T05:42:08.187Z,1.38
2024-02-22T05:43:08.324Z,1.35
2024-02-22T05:44:08.369Z,1.23
2024-02-22T05:45:08.381Z,1.34
2024-02-22T05:46:08.479Z,1.24
2024-02-22T05:47:08.554Z,1.33
2024-02-22T05:48:08.626Z,1.34
2024-02-22T05:49:08.710Z,1.38
2024-02-22T05:50:08.730Z,1.36
2024-02-22T05:51:08.748Z,1.61
2024-02-22T05:52:08.825Z,1.26
2024-02-22T05:53:08.919Z,1.19
2024-02-22T05:54:08.923Z,1.31
2024-02-22T05:55:09.001Z,1.36
2024-02-22T05:56:09.078Z,1.43
2024-02-22T05:57:11.571Z,1.55
2024-02-22T05:58:09.116Z,1.30
2024-02-22T05:59:09.145Z,1.30
2024-02-22T06:00:09.126Z,1.32
2024-02-22T06:01:09.207Z,1.35
2024-02-22T06:02:09.203Z,1.22
2024-02-22T06:03:10.655Z,1.73
2024-02-22T06:04:09.143Z,1.52
2024-02-22T06:05:09.255Z,1.46
2024-02-22T06:06:09.126Z,1.32
2024-02-22T06:07:09.184Z,1.68
2024-02-22T06:08:09.210Z,1.40
2024-02-22T06:09:09.278Z,1.15
2024-02-22T06:10:09.137Z,1.33
2024-02-22T06:11:09.216Z,1.44
2024-02-22T06:12:09.698Z,1.65
2024-02-22T06:13:09.167Z,1.12
2024-02-22T06:14:09.281Z,1.11
2024-02-22T06:15:09.298Z,1.32
2024-02-22T06:16:09.362Z,1.43
2024-02-22T06:17:09.479Z,1.07
2024-02-22T06:18:09.665Z,1.46
2024-02-22T06:19:09.630Z,0.88
2024-02-22T06:20:09.634Z,1.45
2024-02-22T06:21:09.681Z,1.35
2024-02-22T06:22:09.725Z,1.48
2024-02-22T06:23:09.806Z,1.69
2024-02-22T06:24:09.790Z,1.63
2024-02-22T06:25:09.821Z,1.17
2024-02-22T06:26:09.913Z,1.88
2024-02-22T06:27:09.942Z,1.75
2024-02-22T06:28:09.997Z,1.69
2024-02-22T06:29:10.065Z,1.44
2024-02-22T06:30:10.086Z,1.82
2024-02-22T06:31:10.104Z,1.33
2024-02-22T06:32:10.157Z,1.81
2024-02-22T06:33:10.258Z,1.83
2024-02-22T06:34:10.286Z,1.71
2024-02-22T06:35:10.361Z,1.54
2024-02-22T06:36:10.316Z,1.51
2024-02-22T06:37:10.400Z,1.79
2024-02-22T06:38:10.526Z,1.70
2024-02-22T06:39:10.528Z,1.73
2024-02-22T06:40:10.605Z,1.55
2024-02-22T06:41:10.740Z,1.46
2024-02-22T06:42:10.760Z,1.22
2024-02-22T06:43:10.793Z,2.55
2024-02-22T06:44:10.907Z,1.89
2024-02-22T06:45:10.946Z,1.62
2024-02-22T06:46:11.017Z,1.40
2024-02-22T06:47:11.094Z,2.00
2024-02-22T06:48:11.281Z,1.58
2024-02-22T06:49:11.371Z,1.62
2024-02-22T06:50:11.438Z,1.41
2024-02-22T06:51:12.307Z,1.80
2024-02-22T06:52:11.419Z,1.52
2024-02-22T06:53:11.479Z,1.78
2024-02-22T06:54:11.516Z,1.55
2024-02-22T06:55:11.602Z,1.52
2024-02-22T06:56:11.712Z,1.45
2024-02-22T06:57:11.731Z,1.64
2024-02-22T06:58:11.871Z,1.54
2024-02-22T06:59:11.973Z,1.47
2024-02-22T07:00:11.945Z,2.03
2024-02-22T07:01:12.012Z,1.60
2024-02-22T07:02:12.108Z,1.60
2024-02-22T07:03:12.108Z,1.53
2024-02-22T07:04:12.196Z,1.33
2024-02-22T07:05:12.302Z,1.67
2024-02-22T07:06:12.319Z,1.48
2024-02-22T07:07:12.443Z,1.76
2024-02-22T07:08:12.514Z,1.62
2024-02-22T07:09:12.496Z,1.53
2024-02-22T07:10:12.700Z,1.50
2024-02-22T07:11:12.747Z,1.31
2024-02-22T07:12:12.828Z,1.40
2024-02-22T07:13:12.771Z,1.14
2024-02-22T07:14:12.869Z,1.55
2024-02-22T07:15:12.892Z,1.47
2024-02-22T07:16:12.974Z,1.33
2024-02-22T07:17:13.117Z,1.74
2024-02-22T07:18:13.262Z,1.39
2024-02-22T07:19:13.330Z,1.71
2024-02-22T07:20:13.291Z,1.40
2024-02-22T07:21:13.305Z,1.78
2024-02-22T07:22:13.379Z,1.58
2024-02-22T07:23:13.493Z,1.51
2024-02-22T07:24:13.508Z,1.28
2024-02-22T07:25:13.573Z,1.73
2024-02-22T07:26:13.676Z,1.75
2024-02-22T07:27:14.648Z,2.03
2024-02-22T07:28:13.671Z,1.90
2024-02-22T07:29:17.486Z,1.72
2024-02-22T07:30:13.755Z,1.89
2024-02-22T07:31:13.662Z,2.00
2024-02-22T07:32:13.723Z,1.94
2024-02-22T07:33:13.762Z,1.76
2024-02-22T07:34:13.740Z,1.99
2024-02-22T07:35:13.686Z,1.82
2024-02-22T07:36:13.671Z,1.77
2024-02-22T07:37:13.740Z,1.84
2024-02-22T07:38:13.717Z,1.93
2024-02-22T07:39:13.661Z,1.88
2024-02-22T07:40:13.691Z,2.46
2024-02-22T07:41:13.803Z,1.85
2024-02-22T07:42:13.680Z,2.00
2024-02-22T07:43:13.666Z,1.67
2024-02-22T07:44:14.324Z,1.90
2024-02-22T07:45:13.675Z,2.36
2024-02-22T07:46:13.670Z,1.98
2024-02-22T07:47:13.778Z,1.62
2024-02-22T07:48:13.892Z,1.87
2024-02-22T07:49:13.851Z,2.00
2024-02-22T07:50:13.900Z,2.11
2024-02-22T07:51:13.917Z,2.02
2024-02-22T07:52:13.972Z,1.70
2024-02-22T07:53:14.199Z,2.23
2024-02-22T07:54:14.101Z,1.89
2024-02-22T07:55:14.146Z,1.71
2024-02-22T07:56:14.251Z,1.84
2024-02-22T07:57:14.259Z,1.94
2024-02-22T07:58:14.314Z,1.98
2024-02-22T07:59:16.388Z,2.18
2024-02-22T08:00:14.431Z,1.78
2024-02-22T08:01:14.526Z,1.79
2024-02-22T08:02:14.573Z,1.68
2024-02-22T08:03:14.579Z,2.13
2024-02-22T08:04:14.982Z,1.97
2024-02-22T08:05:14.801Z,2.04
2024-02-22T08:06:14.889Z,2.04
2024-02-22T08:07:14.874Z,2.07
2024-02-22T08:08:15.010Z,2.08
2024-02-22T08:09:14.986Z,2.23
2024-02-22T08:10:15.017Z,2.00
2024-02-22T08:11:15.178Z,2.43
2024-02-22T08:12:15.160Z,2.38
2024-02-22T08:13:15.808Z,2.22
2024-02-22T08:14:15.250Z,2.22
2024-02-22T08:15:15.218Z,2.15
2024-02-22T08:16:15.248Z,2.34
2024-02-22T08:17:15.310Z,2.42
2024-02-22T08:18:15.374Z,2.79
2024-02-22T08:19:16.322Z,2.24
2024-02-22T08:20:15.477Z,2.84
2024-02-22T08:21:15.497Z,2.97
2024-02-22T08:22:15.552Z,2.35
2024-02-22T08:23:15.781Z,2.21
2024-02-22T08:24:15.650Z,2.42
2024-02-22T08:25:15.757Z,2.55
2024-02-22T08:26:15.911Z,2.42
2024-02-22T08:27:15.730Z,1.99
2024-02-22T08:28:15.740Z,2.41
2024-02-22T08:29:15.967Z,2.27
2024-02-22T08:30:15.772Z,2.28
2024-02-22T08:31:16.792Z,2.04
2024-02-22T08:32:15.845Z,2.09
2024-02-22T08:33:15.981Z,2.65
2024-02-22T08:34:16.116Z,2.27
2024-02-22T08:35:15.941Z,2.55
2024-02-22T08:36:15.910Z,2.52
2024-02-22T08:37:15.929Z,2.17
2024-02-22T08:38:16.063Z,2.55
2024-02-22T08:39:16.005Z,2.21
2024-02-22T08:40:26.440Z,2.33
2024-02-22T08:41:17.770Z,2.20
2024-02-22T08:42:16.063Z,2.57
2024-02-22T08:43:16.071Z,1.93
2024-02-22T08:44:16.132Z,2.09
2024-02-22T08:45:16.064Z,1.80
2024-02-22T08:46:16.108Z,1.84
2024-02-22T08:47:16.108Z,2.25
2024-02-22T08:48:16.185Z,2.16
2024-02-22T08:49:16.171Z,2.34
2024-02-22T08:50:16.167Z,1.81
2024-02-22T08:51:16.072Z,1.97
2024-02-22T08:52:17.937Z,2.12
2024-02-22T08:53:16.149Z,2.52
2024-02-22T08:54:16.108Z,2.23
2024-02-22T08:55:16.149Z,2.10
2024-02-22T08:56:16.247Z,2.40
2024-02-22T08:57:16.219Z,1.89
2024-02-22T08:58:16.266Z,2.05
2024-02-22T08:59:16.304Z,2.46
2024-02-22T09:00:16.320Z,2.40
2024-02-22T09:01:16.407Z,1.96
2024-02-22T09:02:16.493Z,2.29
2024-02-22T09:03:16.374Z,1.75
2024-02-22T09:04:16.529Z,2.00
2024-02-22T09:05:16.524Z,1.95
2024-02-22T09:06:16.753Z,2.32
2024-02-22T09:07:16.690Z,2.10
2024-02-22T09:08:16.748Z,2.06
2024-02-22T09:09:16.751Z,2.44
2024-02-22T09:10:16.809Z,2.58
2024-02-22T09:11:16.914Z,2.57
2024-02-22T09:12:16.926Z,2.62
2024-02-22T09:13:16.951Z,2.10
2024-02-22T09:14:17.119Z,2.82
2024-02-22T09:15:17.053Z,2.48
2024-02-22T09:16:17.050Z,2.82
2024-02-22T09:17:17.237Z,2.33
2024-02-22T09:18:17.229Z,2.10
2024-02-22T09:19:17.323Z,2.30
2024-02-22T09:20:17.338Z,2.72
2024-02-22T09:21:17.359Z,2.24
2024-02-22T09:22:17.373Z,2.51
2024-02-22T09:23:17.689Z,2.27
2024-02-22T09:24:17.516Z,2.29
2024-02-22T09:25:17.568Z,2.28
2024-02-22T09:26:17.627Z,2.09
2024-02-22T09:27:17.647Z,2.30
2024-02-22T09:28:17.662Z,2.35
2024-02-22T09:29:17.817Z,2.22
2024-02-22T09:30:17.749Z,1.97
2024-02-22T09:31:17.811Z,2.44
2024-02-22T09:32:17.935Z,2.21
2024-02-22T09:33:17.874Z,1.93
2024-02-22T09:34:17.955Z,2.31
2024-02-22T09:35:17.970Z,2.49
2024-02-22T09:36:17.936Z,2.17
2024-02-22T09:37:17.986Z,1.87
2024-02-22T09:38:18.029Z,2.11
2024-02-22T09:39:17.995Z,2.11
2024-02-22T09:40:18.085Z,2.03
2024-02-22T09:41:18.206Z,1.80
2024-02-22T09:42:18.210Z,1.76
2024-02-22T09:43:18.265Z,2.02
2024-02-22T09:44:18.425Z,2.14
2024-02-22T09:45:18.377Z,2.32
2024-02-22T09:46:18.509Z,1.80
2024-02-22T09:47:19.422Z,2.14
2024-02-22T09:48:18.542Z,1.90
2024-02-22T09:49:18.532Z,2.09
2024-02-22T09:50:18.582Z,1.90
2024-02-22T09:51:18.561Z,2.14
2024-02-22T09:52:18.656Z,1.84
2024-02-22T09:53:18.791Z,1.93
2024-02-22T09:54:18.730Z,2.17
2024-02-22T09:55:18.704Z,1.99
2024-02-22T09:56:18.787Z,1.51
2024-02-22T09:57:21.368Z,1.79
2024-02-22T09:58:18.980Z,1.88
2024-02-22T09:59:19.095Z,2.02
2024-02-22T10:00:20.152Z,1.95
2024-02-22T10:01:19.018Z,1.64
2024-02-22T10:02:19.340Z,1.86
2024-02-22T10:03:19.115Z,1.72
2024-02-22T10:04:19.120Z,1.75
2024-02-22T10:05:20.009Z,1.59
2024-02-22T10:06:19.229Z,1.93
2024-02-22T10:07:19.225Z,1.79
2024-02-22T10:08:19.317Z,1.70
2024-02-22T10:09:19.265Z,2.20
2024-02-22T10:10:19.276Z,1.96
2024-02-22T10:11:19.453Z,1.83
2024-02-22T10:12:19.910Z,1.84
2024-02-22T10:13:20.495Z,1.97
2024-02-22T10:14:19.487Z,1.99
2024-02-22T10:15:19.502Z,2.01
2024-02-22T10:16:19.532Z,1.73
2024-02-22T10:17:19.767Z,1.83
2024-02-22T10:18:19.658Z,1.73
2024-02-22T10:19:19.724Z,2.40
2024-02-22T10:20:19.833Z,2.34
2024-02-22T10:21:19.669Z,2.19
2024-02-22T10:22:19.704Z,1.77
2024-02-22T10:23:19.818Z,1.79
2024-02-22T10:24:20.730Z,2.28
2024-02-22T10:25:19.745Z,2.18
2024-02-22T10:26:19.790Z,2.44
2024-02-22T10:27:19.749Z,2.54
2024-02-22T10:28:20.293Z,3.04
2024-02-22T10:29:19.905Z,2.30
2024-02-22T10:30:19.817Z,1.61
2024-02-22T10:31:19.755Z,2.08
2024-02-22T10:32:19.844Z,2.02
2024-02-22T10:33:19.973Z,2.29
2024-02-22T10:34:19.878Z,2.11
2024-02-22T10:35:19.862Z,1.71
2024-02-22T10:36:19.873Z,2.06
2024-02-22T10:37:19.906Z,2.41
2024-02-22T10:38:19.976Z,2.08
2024-02-22T10:39:19.983Z,2.32
2024-02-22T10:40:20.010Z,1.97
2024-02-22T10:41:20.152Z,2.45
2024-02-22T10:42:20.069Z,2.17
2024-02-22T10:43:20.098Z,2.25
2024-02-22T10:44:20.208Z,2.00
2024-02-22T10:45:20.168Z,2.04
2024-02-22T10:46:20.185Z,1.95
2024-02-22T10:47:20.305Z,2.04
2024-02-22T10:48:20.278Z,2.10
2024-02-22T10:49:20.318Z,1.92
2024-02-22T10:50:20.453Z,2.20
2024-02-22T10:51:20.345Z,2.36
2024-02-22T10:52:20.388Z,2.27
2024-02-22T10:53:20.412Z,2.07
2024-02-22T10:54:20.429Z,1.89
2024-02-22T10:55:20.448Z,2.05
2024-02-22T10:56:20.536Z,2.02
2024-02-22T10:57:20.513Z,2.29
2024-02-22T10:58:20.552Z,2.22
2024-02-22T10:59:20.606Z,2.33
2024-02-22T11:00:20.615Z,1.98
2024-02-22T11:01:20.742Z,2.28
2024-02-22T11:02:20.718Z,2.30
2024-02-22T11:03:20.684Z,2.09
2024-02-22T11:04:20.734Z,2.18
2024-02-22T11:05:20.777Z,2.16
2024-02-22T11:06:20.826Z,1.82
2024-02-22T11:07:20.826Z,2.05
2024-02-22T11:08:20.867Z,1.72
2024-02-22T11:09:20.851Z,1.90
2024-02-22T11:10:20.974Z,2.45
2024-02-22T11:11:20.958Z,1.82
2024-02-22T11:12:20.962Z,1.85
2024-02-22T11:13:20.990Z,2.04
2024-02-22T11:14:21.076Z,1.68
2024-02-22T11:15:21.081Z,1.90
2024-02-22T11:16:21.887Z,1.51
2024-02-22T11:17:21.303Z,2.34
2024-02-22T11:18:21.248Z,1.75
2024-02-22T11:19:21.281Z,1.75
2024-02-22T11:20:21.409Z,1.75
2024-02-22T11:21:21.403Z,1.98
2024-02-22T11:22:22.659Z,1.71
2024-02-22T11:23:21.537Z,1.94
2024-02-22T11:24:21.642Z,1.86
2024-02-22T11:25:21.698Z,1.91
2024-02-22T11:26:21.808Z,2.03
2024-02-22T11:27:21.784Z,1.77
2024-02-22T11:28:21.823Z,1.73
2024-02-22T11:29:21.930Z,1.88
2024-02-22T11:30:21.971Z,1.99
2024-02-22T11:31:22.019Z,1.97
2024-02-22T11:32:22.893Z,1.57
2024-02-22T11:33:22.221Z,1.73
2024-02-22T11:34:22.325Z,2.32
2024-02-22T11:35:22.510Z,1.72
2024-02-22T11:36:22.372Z,1.99
2024-02-22T11:37:22.453Z,1.80
2024-02-22T11:38:22.463Z,2.13
2024-02-22T11:39:22.436Z,1.76
2024-02-22T11:40:22.451Z,1.76
2024-02-22T11:41:22.540Z,1.93
2024-02-22T11:42:22.467Z,1.91
2024-02-22T11:43:22.494Z,1.66
2024-02-22T11:44:22.581Z,1.77
2024-02-22T11:45:22.619Z,1.84
2024-02-22T11:46:22.565Z,2.13
2024-02-22T11:47:22.724Z,1.69
2024-02-22T11:48:22.739Z,1.66
2024-02-22T11:49:22.695Z,1.83
2024-02-22T11:50:22.764Z,1.83
2024-02-22T11:51:23.327Z,1.69
2024-02-22T11:52:22.704Z,1.74
2024-02-22T11:53:22.759Z,1.45
2024-02-22T11:54:22.758Z,1.40
2024-02-22T11:55:23.332Z,1.50
2024-02-22T11:56:22.865Z,1.69
2024-02-22T11:57:22.858Z,1.92
2024-02-22T11:58:22.890Z,1.81
2024-02-22T11:59:22.969Z,1.50
2024-02-22T12:00:22.944Z,1.34
2024-02-22T12:01:22.957Z,1.44
2024-02-22T12:02:23.005Z,1.54
2024-02-22T12:03:23.065Z,1.68
2024-02-22T12:04:23.039Z,1.92
2024-02-22T12:05:23.266Z,1.60
2024-02-22T12:06:23.171Z,1.34
2024-02-22T12:07:23.211Z,1.73
2024-02-22T12:08:23.371Z,1.90
2024-02-22T12:09:23.179Z,1.71
2024-02-22T12:10:23.202Z,1.36
2024-02-22T12:11:23.337Z,1.71
2024-02-22T12:12:23.259Z,1.50
2024-02-22T12:13:23.313Z,1.30
2024-02-22T12:14:23.415Z,1.69
2024-02-22T12:15:25.556Z,1.57
2024-02-22T12:16:23.391Z,1.95
2024-02-22T12:17:23.433Z,1.67
2024-02-22T12:18:23.481Z,1.23
2024-02-22T12:19:23.442Z,1.25
2024-02-22T12:20:23.458Z,1.41
2024-02-22T12:21:23.407Z,1.66
2024-02-22T12:22:23.383Z,1.55
2024-02-22T12:23:23.444Z,1.62
2024-02-22T12:24:23.374Z,1.42
2024-02-22T12:25:23.419Z,1.91
2024-02-22T12:26:23.446Z,1.86
2024-02-22T12:27:23.575Z,1.28
2024-02-22T12:28:23.386Z,1.58
2024-02-22T12:29:23.509Z,1.79
2024-02-22T12:30:23.408Z,1.40
2024-02-22T12:31:23.388Z,1.53
2024-02-22T12:32:23.425Z,1.21
2024-02-22T12:33:23.517Z,1.39
2024-02-22T12:34:23.503Z,1.21
2024-02-22T12:35:23.527Z,1.64
2024-02-22T12:36:23.509Z,1.35
2024-02-22T12:37:23.383Z,1.63
2024-02-22T12:38:23.468Z,1.45
2024-02-22T12:39:23.409Z,1.45
2024-02-22T12:40:23.461Z,1.20
2024-02-22T12:41:23.605Z,1.37
2024-02-22T12:42:25.351Z,1.21
2024-02-22T12:43:23.890Z,1.38
2024-02-22T12:44:23.614Z,1.35
2024-02-22T12:45:23.939Z,1.07
2024-02-22T12:46:23.543Z,1.22
2024-02-22T12:47:23.669Z,1.57
2024-02-22T12:48:23.650Z,1.53
2024-02-22T12:49:23.537Z,1.49
2024-02-22T12:50:23.642Z,1.31
2024-02-22T12:51:23.664Z,1.14
2024-02-22T12:52:23.753Z,1.07
2024-02-22T12:53:23.889Z,1.24
2024-02-22T12:54:23.839Z,1.22
2024-02-22T12:55:23.910Z,1.29
2024-02-22T12:56:24.722Z,0.97
2024-02-22T12:57:24.024Z,1.16
2024-02-22T12:58:24.087Z,1.23
2024-02-22T12:59:25.961Z,0.96
2024-02-22T13:00:24.250Z,0.97
2024-02-22T13:01:24.301Z,1.07
2024-02-22T13:02:24.395Z,1.24
2024-02-22T13:03:24.424Z,1.48
2024-02-22T13:04:24.551Z,1.60
2024-02-22T13:05:24.632Z,1.27
2024-02-22T13:06:25.490Z,1.23
2024-02-22T13:07:24.686Z,1.80
2024-02-22T13:08:29.937Z,1.20
2024-02-22T13:09:25.745Z,1.19
2024-02-22T13:10:24.762Z,1.20
2024-02-22T13:11:24.781Z,1.46
2024-02-22T13:12:24.758Z,0.93
2024-02-22T13:13:24.751Z,1.14
2024-02-22T13:14:24.794Z,1.32
2024-02-22T13:15:24.793Z,1.46
2024-02-22T13:16:24.761Z,1.43
2024-02-22T13:17:24.841Z,1.64
2024-02-22T13:18:24.892Z,1.76
2024-02-22T13:19:24.794Z,1.28